sensor_id;sensor_type;location;lat;lon;timestamp;P1;durP1;ratioP1;P2;durP2;ratioP2
18853;SDS011;9556;49.374;19.446;2023-12-28T00:02:07;4.15;;;2.67;;
18853;SDS011;9556;49.374;19.446;2023-12-28T00:04:34;5.22;;;3.20;;
18853;SDS011;9556;49.374;19.446;2023-12-28T00:07:02;4.30;;;2.97;;
18853;SDS011;9556;49.374;19.446;2023-12-28T00:09:29;3.58;;;2.50;;
18853;SDS011;9556;49.374;19.446;2023-12-28T00:11:57;5.53;;;2.85;;
18853;SDS011;9556;49.374;19.446;2023-12-28T00:14:25;2.85;;;2.35;;
18853;SDS011;9556;49.374;19.446;2023-12-28T00:16:52;3.55;;;2.40;;
18853;SDS011;9556;49.374;19.446;2023-12-28T00:19:19;4.25;;;2.70;;
18853;SDS011;9556;49.374;19.446;2023-12-28T00:21:46;4.97;;;3.05;;
18853;SDS011;9556;49.374;19.446;2023-12-28T00:24:14;4.05;;;2.70;;
18853;SDS011;9556;49.374;19.446;2023-12-28T00:26:42;4.80;;;2.83;;
18853;SDS011;9556;49.374;19.446;2023-12-28T00:29:10;4.15;;;2.80;;
18853;SDS011;9556;49.374;19.446;2023-12-28T00:31:37;3.90;;;2.50;;
18853;SDS011;9556;49.374;19.446;2023-12-28T00:34:04;3.88;;;2.42;;
18853;SDS011;9556;49.374;19.446;2023-12-28T00:36:32;3.58;;;2.78;;
18853;SDS011;9556;49.374;19.446;2023-12-28T00:38:59;3.50;;;2.50;;
18853;SDS011;9556;49.374;19.446;2023-12-28T00:41:26;3.78;;;2.60;;
18853;SDS011;9556;49.374;19.446;2023-12-28T00:43:53;4.60;;;2.63;;
18853;SDS011;9556;49.374;19.446;2023-12-28T00:46:22;4.95;;;2.88;;
18853;SDS011;9556;49.374;19.446;2023-12-28T00:48:49;3.80;;;2.35;;
18853;SDS011;9556;49.374;19.446;2023-12-28T00:51:16;4.15;;;2.42;;
18853;SDS011;9556;49.374;19.446;2023-12-28T00:53:43;5.05;;;2.55;;
18853;SDS011;9556;49.374;19.446;2023-12-28T00:56:10;3.88;;;2.50;;
18853;SDS011;9556;49.374;19.446;2023-12-28T00:58:38;4.10;;;2.60;;
18853;SDS011;9556;49.374;19.446;2023-12-28T01:01:05;6.28;;;2.50;;
18853;SDS011;9556;49.374;19.446;2023-12-28T01:03:34;3.55;;;2.30;;
18853;SDS011;9556;49.374;19.446;2023-12-28T01:06:01;4.05;;;2.35;;
18853;SDS011;9556;49.374;19.446;2023-12-28T01:08:28;4.57;;;2.33;;
18853;SDS011;9556;49.374;19.446;2023-12-28T01:10:56;3.75;;;2.75;;
18853;SDS011;9556;49.374;19.446;2023-12-28T01:13:23;3.67;;;2.45;;
18853;SDS011;9556;49.374;19.446;2023-12-28T01:15:50;3.85;;;2.33;;
18853;SDS011;9556;49.374;19.446;2023-12-28T01:18:17;3.22;;;2.20;;
18853;SDS011;9556;49.374;19.446;2023-12-28T01:20:46;3.40;;;2.20;;
18853;SDS011;9556;49.374;19.446;2023-12-28T01:23:13;3.90;;;2.50;;
18853;SDS011;9556;49.374;19.446;2023-12-28T01:25:40;3.67;;;2.30;;
18853;SDS011;9556;49.374;19.446;2023-12-28T01:28:07;3.17;;;2.28;;
18853;SDS011;9556;49.374;19.446;2023-12-28T01:30:34;3.78;;;2.50;;
18853;SDS011;9556;49.374;19.446;2023-12-28T01:33:02;4.55;;;2.38;;
18853;SDS011;9556;49.374;19.446;2023-12-28T01:35:29;2.63;;;2.05;;
18853;SDS011;9556;49.374;19.446;2023-12-28T01:37:57;4.35;;;2.42;;
18853;SDS011;9556;49.374;19.446;2023-12-28T01:40:25;3.13;;;2.38;;
18853;SDS011;9556;49.374;19.446;2023-12-28T01:42:53;3.08;;;2.28;;
18853;SDS011;9556;49.374;19.446;2023-12-28T01:45:20;3.13;;;2.20;;
18853;SDS011;9556;49.374;19.446;2023-12-28T01:47:47;2.95;;;2.30;;
18853;SDS011;9556;49.374;19.446;2023-12-28T01:50:15;2.92;;;2.15;;
18853;SDS011;9556;49.374;19.446;2023-12-28T01:52:42;3.10;;;2.25;;
18853;SDS011;9556;49.374;19.446;2023-12-28T01:55:11;3.33;;;2.05;;
18853;SDS011;9556;49.374;19.446;2023-12-28T01:57:38;2.63;;;2.00;;
18853;SDS011;9556;49.374;19.446;2023-12-28T02:00:06;4.05;;;2.10;;
18853;SDS011;9556;49.374;19.446;2023-12-28T02:02:33;7.28;;;2.05;;
18853;SDS011;9556;49.374;19.446;2023-12-28T02:05:01;3.97;;;2.42;;
18853;SDS011;9556;49.374;19.446;2023-12-28T02:07:28;5.55;;;2.60;;
18853;SDS011;9556;49.374;19.446;2023-12-28T02:09:56;3.75;;;2.35;;
18853;SDS011;9556;49.374;19.446;2023-12-28T02:12:24;3.70;;;2.58;;
18853;SDS011;9556;49.374;19.446;2023-12-28T02:14:52;3.50;;;2.42;;
18853;SDS011;9556;49.374;19.446;2023-12-28T02:17:20;2.85;;;2.00;;
18853;SDS011;9556;49.374;19.446;2023-12-28T02:19:49;3.13;;;2.30;;
18853;SDS011;9556;49.374;19.446;2023-12-28T02:22:17;2.83;;;2.10;;
18853;SDS011;9556;49.374;19.446;2023-12-28T02:24:58;2.65;;;2.05;;
18853;SDS011;9556;49.374;19.446;2023-12-28T02:27:24;3.50;;;1.98;;
18853;SDS011;9556;49.374;19.446;2023-12-28T02:29:51;3.03;;;2.22;;
18853;SDS011;9556;49.374;19.446;2023-12-28T02:32:19;4.47;;;2.30;;
18853;SDS011;9556;49.374;19.446;2023-12-28T02:34:49;3.08;;;2.30;;
18853;SDS011;9556;49.374;19.446;2023-12-28T02:37:18;3.13;;;2.20;;
18853;SDS011;9556;49.374;19.446;2023-12-28T02:39:46;5.03;;;2.42;;
18853;SDS011;9556;49.374;19.446;2023-12-28T02:42:15;2.60;;;1.80;;
18853;SDS011;9556;49.374;19.446;2023-12-28T02:44:42;2.45;;;1.90;;
18853;SDS011;9556;49.374;19.446;2023-12-28T02:47:09;3.10;;;2.08;;
18853;SDS011;9556;49.374;19.446;2023-12-28T02:49:38;2.30;;;1.83;;
18853;SDS011;9556;49.374;19.446;2023-12-28T02:52:05;2.45;;;1.90;;
18853;SDS011;9556;49.374;19.446;2023-12-28T02:54:32;2.95;;;1.98;;
18853;SDS011;9556;49.374;19.446;2023-12-28T02:56:59;2.88;;;2.08;;
18853;SDS011;9556;49.374;19.446;2023-12-28T02:59:28;3.55;;;2.10;;
18853;SDS011;9556;49.374;19.446;2023-12-28T03:01:55;2.42;;;1.90;;
18853;SDS011;9556;49.374;19.446;2023-12-28T03:04:22;3.10;;;1.80;;
18853;SDS011;9556;49.374;19.446;2023-12-28T03:06:50;2.83;;;2.15;;
18853;SDS011;9556;49.374;19.446;2023-12-28T03:09:17;2.80;;;1.90;;
18853;SDS011;9556;49.374;19.446;2023-12-28T03:11:44;2.40;;;1.70;;
18853;SDS011;9556;49.374;19.446;2023-12-28T03:14:11;2.33;;;1.90;;
18853;SDS011;9556;49.374;19.446;2023-12-28T03:16:39;3.53;;;2.00;;
18853;SDS011;9556;49.374;19.446;2023-12-28T03:19:07;2.72;;;1.98;;
18853;SDS011;9556;49.374;19.446;2023-12-28T03:21:38;3.42;;;1.92;;
18853;SDS011;9556;49.374;19.446;2023-12-28T03:24:05;2.88;;;1.90;;
18853;SDS011;9556;49.374;19.446;2023-12-28T03:26:32;2.85;;;1.80;;
18853;SDS011;9556;49.374;19.446;2023-12-28T03:29:00;2.10;;;1.70;;
18853;SDS011;9556;49.374;19.446;2023-12-28T03:31:27;2.58;;;1.60;;
18853;SDS011;9556;49.374;19.446;2023-12-28T03:33:55;2.72;;;1.70;;
18853;SDS011;9556;49.374;19.446;2023-12-28T03:36:23;2.65;;;1.88;;
18853;SDS011;9556;49.374;19.446;2023-12-28T03:38:50;2.50;;;1.90;;
18853;SDS011;9556;49.374;19.446;2023-12-28T03:41:17;3.10;;;2.00;;
18853;SDS011;9556;49.374;19.446;2023-12-28T03:43:44;1.90;;;1.58;;
18853;SDS011;9556;49.374;19.446;2023-12-28T03:46:12;1.88;;;1.52;;
18853;SDS011;9556;49.374;19.446;2023-12-28T03:48:39;4.95;;;1.83;;
18853;SDS011;9556;49.374;19.446;2023-12-28T03:51:08;2.95;;;1.75;;
18853;SDS011;9556;49.374;19.446;2023-12-28T03:53:40;2.45;;;1.60;;
18853;SDS011;9556;49.374;19.446;2023-12-28T03:56:07;2.05;;;1.50;;
18853;SDS011;9556;49.374;19.446;2023-12-28T03:58:34;2.53;;;1.70;;
18853;SDS011;9556;49.374;19.446;2023-12-28T04:01:01;2.40;;;1.70;;
18853;SDS011;9556;49.374;19.446;2023-12-28T04:03:28;2.38;;;1.90;;
18853;SDS011;9556;49.374;19.446;2023-12-28T04:05:56;1.70;;;1.52;;
18853;SDS011;9556;49.374;19.446;2023-12-28T04:08:24;2.70;;;1.60;;
18853;SDS011;9556;49.374;19.446;2023-12-28T04:10:51;2.08;;;1.42;;
18853;SDS011;9556;49.374;19.446;2023-12-28T04:13:18;1.60;;;1.50;;
18853;SDS011;9556;49.374;19.446;2023-12-28T04:15:45;2.28;;;1.70;;
18853;SDS011;9556;49.374;19.446;2023-12-28T04:18:13;2.25;;;1.63;;
18853;SDS011;9556;49.374;19.446;2023-12-28T04:20:42;2.15;;;1.70;;
18853;SDS011;9556;49.374;19.446;2023-12-28T04:23:09;2.13;;;1.40;;
18853;SDS011;9556;49.374;19.446;2023-12-28T04:25:38;2.38;;;1.58;;
18853;SDS011;9556;49.374;19.446;2023-12-28T04:28:05;2.13;;;1.60;;
18853;SDS011;9556;49.374;19.446;2023-12-28T04:30:33;2.03;;;1.42;;
18853;SDS011;9556;49.374;19.446;2023-12-28T04:33:00;2.33;;;1.73;;
18853;SDS011;9556;49.374;19.446;2023-12-28T04:35:27;2.28;;;1.70;;
18853;SDS011;9556;49.374;19.446;2023-12-28T04:37:54;2.38;;;1.40;;
18853;SDS011;9556;49.374;19.446;2023-12-28T04:40:21;2.55;;;1.65;;
18853;SDS011;9556;49.374;19.446;2023-12-28T04:42:50;1.90;;;1.50;;
18853;SDS011;9556;49.374;19.446;2023-12-28T04:45:17;2.75;;;1.73;;
18853;SDS011;9556;49.374;19.446;2023-12-28T04:47:44;2.72;;;1.65;;
18853;SDS011;9556;49.374;19.446;2023-12-28T04:50:11;3.38;;;1.38;;
18853;SDS011;9556;49.374;19.446;2023-12-28T04:52:38;2.80;;;1.83;;
18853;SDS011;9556;49.374;19.446;2023-12-28T04:55:06;2.25;;;1.48;;
18853;SDS011;9556;49.374;19.446;2023-12-28T04:57:33;2.85;;;1.70;;
18853;SDS011;9556;49.374;19.446;2023-12-28T05:00:02;2.13;;;1.70;;
18853;SDS011;9556;49.374;19.446;2023-12-28T05:02:29;2.42;;;1.60;;
18853;SDS011;9556;49.374;19.446;2023-12-28T05:04:56;2.40;;;1.42;;
18853;SDS011;9556;49.374;19.446;2023-12-28T05:07:24;2.03;;;1.38;;
18853;SDS011;9556;49.374;19.446;2023-12-28T05:09:51;1.45;;;1.30;;
18853;SDS011;9556;49.374;19.446;2023-12-28T05:12:18;2.25;;;1.52;;
18853;SDS011;9556;49.374;19.446;2023-12-28T05:14:45;3.30;;;1.85;;
18853;SDS011;9556;49.374;19.446;2023-12-28T05:17:14;2.20;;;1.65;;
18853;SDS011;9556;49.374;19.446;2023-12-28T05:19:41;2.13;;;1.67;;
18853;SDS011;9556;49.374;19.446;2023-12-28T05:22:08;2.38;;;1.60;;
18853;SDS011;9556;49.374;19.446;2023-12-28T05:24:36;2.45;;;1.52;;
18853;SDS011;9556;49.374;19.446;2023-12-28T05:27:03;3.17;;;1.73;;
18853;SDS011;9556;49.374;19.446;2023-12-28T05:29:30;2.05;;;1.65;;
18853;SDS011;9556;49.374;19.446;2023-12-28T05:31:57;1.80;;;1.48;;
18853;SDS011;9556;49.374;19.446;2023-12-28T05:34:26;2.10;;;1.63;;
18853;SDS011;9556;49.374;19.446;2023-12-28T05:36:53;1.70;;;1.40;;
18853;SDS011;9556;49.374;19.446;2023-12-28T05:39:20;2.15;;;1.55;;
18853;SDS011;9556;49.374;19.446;2023-12-28T05:41:47;2.25;;;1.42;;
18853;SDS011;9556;49.374;19.446;2023-12-28T05:44:15;2.10;;;1.60;;
18853;SDS011;9556;49.374;19.446;2023-12-28T05:46:43;2.33;;;1.60;;
18853;SDS011;9556;49.374;19.446;2023-12-28T05:49:10;2.47;;;1.65;;
18853;SDS011;9556;49.374;19.446;2023-12-28T05:51:38;1.90;;;1.60;;
18853;SDS011;9556;49.374;19.446;2023-12-28T05:54:06;2.22;;;1.50;;
18853;SDS011;9556;49.374;19.446;2023-12-28T05:56:33;3.17;;;1.98;;
18853;SDS011;9556;49.374;19.446;2023-12-28T05:59:00;2.20;;;1.63;;
18853;SDS011;9556;49.374;19.446;2023-12-28T06:01:27;2.13;;;1.55;;
18853;SDS011;9556;49.374;19.446;2023-12-28T06:03:54;3.83;;;1.92;;
18853;SDS011;9556;49.374;19.446;2023-12-28T06:06:22;2.10;;;1.65;;
18853;SDS011;9556;49.374;19.446;2023-12-28T06:08:50;3.25;;;2.03;;
18853;SDS011;9556;49.374;19.446;2023-12-28T06:11:18;4.20;;;1.92;;
18853;SDS011;9556;49.374;19.446;2023-12-28T06:13:45;3.75;;;2.10;;
18853;SDS011;9556;49.374;19.446;2023-12-28T06:16:12;3.60;;;1.90;;
18853;SDS011;9556;49.374;19.446;2023-12-28T06:18:40;3.20;;;1.80;;
18853;SDS011;9556;49.374;19.446;2023-12-28T06:21:07;3.05;;;1.88;;
18853;SDS011;9556;49.374;19.446;2023-12-28T06:23:35;2.78;;;2.10;;
18853;SDS011;9556;49.374;19.446;2023-12-28T06:26:07;2.45;;;1.50;;
18853;SDS011;9556;49.374;19.446;2023-12-28T06:28:34;2.13;;;1.42;;
18853;SDS011;9556;49.374;19.446;2023-12-28T06:31:01;2.72;;;1.80;;
18853;SDS011;9556;49.374;19.446;2023-12-28T06:33:29;2.65;;;1.90;;
18853;SDS011;9556;49.374;19.446;2023-12-28T06:35:56;3.25;;;1.77;;
18853;SDS011;9556;49.374;19.446;2023-12-28T06:38:24;2.60;;;1.70;;
18853;SDS011;9556;49.374;19.446;2023-12-28T06:40:51;3.35;;;1.98;;
18853;SDS011;9556;49.374;19.446;2023-12-28T06:43:19;2.15;;;1.70;;
18853;SDS011;9556;49.374;19.446;2023-12-28T06:45:47;2.30;;;1.75;;
18853;SDS011;9556;49.374;19.446;2023-12-28T06:48:14;2.17;;;1.70;;
18853;SDS011;9556;49.374;19.446;2023-12-28T06:50:41;3.55;;;1.90;;
18853;SDS011;9556;49.374;19.446;2023-12-28T06:53:08;2.67;;;1.75;;
18853;SDS011;9556;49.374;19.446;2023-12-28T06:55:35;2.35;;;1.60;;
18853;SDS011;9556;49.374;19.446;2023-12-28T06:58:03;2.75;;;1.80;;
18853;SDS011;9556;49.374;19.446;2023-12-28T07:00:33;2.65;;;1.73;;
18853;SDS011;9556;49.374;19.446;2023-12-28T07:03:00;2.28;;;1.60;;
18853;SDS011;9556;49.374;19.446;2023-12-28T07:05:28;6.05;;;1.75;;
18853;SDS011;9556;49.374;19.446;2023-12-28T07:07:55;2.53;;;1.85;;
18853;SDS011;9556;49.374;19.446;2023-12-28T07:10:22;3.03;;;2.20;;
18853;SDS011;9556;49.374;19.446;2023-12-28T07:12:49;3.15;;;1.70;;
18853;SDS011;9556;49.374;19.446;2023-12-28T07:15:16;2.10;;;1.60;;
18853;SDS011;9556;49.374;19.446;2023-12-28T07:17:45;3.47;;;1.50;;
18853;SDS011;9556;49.374;19.446;2023-12-28T07:20:12;2.53;;;1.83;;
18853;SDS011;9556;49.374;19.446;2023-12-28T07:22:39;2.58;;;1.80;;
18853;SDS011;9556;49.374;19.446;2023-12-28T07:25:07;4.30;;;1.88;;
18853;SDS011;9556;49.374;19.446;2023-12-28T07:27:34;2.10;;;1.70;;
18853;SDS011;9556;49.374;19.446;2023-12-28T07:30:02;4.97;;;1.90;;
18853;SDS011;9556;49.374;19.446;2023-12-28T07:32:30;2.08;;;1.55;;
18853;SDS011;9556;49.374;19.446;2023-12-28T07:34:58;2.85;;;1.75;;
18853;SDS011;9556;49.374;19.446;2023-12-28T07:37:25;4.38;;;1.80;;
18853;SDS011;9556;49.374;19.446;2023-12-28T07:39:53;13.70;;;2.03;;
18853;SDS011;9556;49.374;19.446;2023-12-28T07:42:20;13.13;;;2.30;;
18853;SDS011;9556;49.374;19.446;2023-12-28T07:44:47;14.52;;;2.40;;
18853;SDS011;9556;49.374;19.446;2023-12-28T07:47:14;15.80;;;2.45;;
18853;SDS011;9556;49.374;19.446;2023-12-28T07:49:42;13.68;;;2.60;;
18853;SDS011;9556;49.374;19.446;2023-12-28T07:52:10;12.48;;;2.58;;
18853;SDS011;9556;49.374;19.446;2023-12-28T07:54:37;13.73;;;2.15;;
18853;SDS011;9556;49.374;19.446;2023-12-28T07:59:46;4.85;;;1.80;;
18853;SDS011;9556;49.374;19.446;2023-12-28T08:02:13;11.38;;;2.05;;
18853;SDS011;9556;49.374;19.446;2023-12-28T08:04:41;4.95;;;2.17;;
18853;SDS011;9556;49.374;19.446;2023-12-28T08:07:08;8.65;;;1.73;;
18853;SDS011;9556;49.374;19.446;2023-12-28T08:09:37;6.78;;;1.77;;
18853;SDS011;9556;49.374;19.446;2023-12-28T08:12:04;10.93;;;2.38;;
18853;SDS011;9556;49.374;19.446;2023-12-28T08:14:32;5.25;;;2.00;;
18853;SDS011;9556;49.374;19.446;2023-12-28T08:16:59;9.85;;;2.10;;
18853;SDS011;9556;49.374;19.446;2023-12-28T08:19:26;8.25;;;2.63;;
18853;SDS011;9556;49.374;19.446;2023-12-28T08:21:53;6.53;;;2.15;;
18853;SDS011;9556;49.374;19.446;2023-12-28T08:24:21;5.50;;;2.10;;
18853;SDS011;9556;49.374;19.446;2023-12-28T08:26:49;7.97;;;2.10;;
18853;SDS011;9556;49.374;19.446;2023-12-28T08:29:16;6.88;;;2.20;;
18853;SDS011;9556;49.374;19.446;2023-12-28T08:31:57;7.13;;;2.30;;
18853;SDS011;9556;49.374;19.446;2023-12-28T08:34:29;6.20;;;2.05;;
18853;SDS011;9556;49.374;19.446;2023-12-28T08:36:56;4.35;;;1.98;;
18853;SDS011;9556;49.374;19.446;2023-12-28T08:39:25;4.75;;;1.92;;
18853;SDS011;9556;49.374;19.446;2023-12-28T08:41:54;3.15;;;1.98;;
18853;SDS011;9556;49.374;19.446;2023-12-28T08:44:25;5.35;;;1.90;;
18853;SDS011;9556;49.374;19.446;2023-12-28T08:46:55;2.85;;;1.80;;
18853;SDS011;9556;49.374;19.446;2023-12-28T08:49:28;3.88;;;1.77;;
18853;SDS011;9556;49.374;19.446;2023-12-28T08:51:55;2.95;;;1.80;;
18853;SDS011;9556;49.374;19.446;2023-12-28T08:54:22;5.82;;;2.03;;
18853;SDS011;9556;49.374;19.446;2023-12-28T08:56:49;5.05;;;2.15;;
18853;SDS011;9556;49.374;19.446;2023-12-28T08:59:21;3.35;;;1.70;;
18853;SDS011;9556;49.374;19.446;2023-12-28T09:01:48;2.60;;;1.80;;
18853;SDS011;9556;49.374;19.446;2023-12-28T09:04:15;3.03;;;1.85;;
18853;SDS011;9556;49.374;19.446;2023-12-28T09:06:43;3.45;;;1.88;;
18853;SDS011;9556;49.374;19.446;2023-12-28T09:09:10;4.22;;;1.92;;
18853;SDS011;9556;49.374;19.446;2023-12-28T09:11:37;4.18;;;1.90;;
18853;SDS011;9556;49.374;19.446;2023-12-28T09:14:05;5.05;;;1.80;;
18853;SDS011;9556;49.374;19.446;2023-12-28T09:16:33;3.78;;;1.85;;
18853;SDS011;9556;49.374;19.446;2023-12-28T09:19:01;3.88;;;1.67;;
18853;SDS011;9556;49.374;19.446;2023-12-28T09:21:28;4.88;;;2.00;;
18853;SDS011;9556;49.374;19.446;2023-12-28T09:23:55;5.43;;;1.92;;
18853;SDS011;9556;49.374;19.446;2023-12-28T09:26:22;3.28;;;1.60;;
18853;SDS011;9556;49.374;19.446;2023-12-28T09:28:50;5.15;;;2.00;;
18853;SDS011;9556;49.374;19.446;2023-12-28T09:31:17;6.35;;;1.75;;
18853;SDS011;9556;49.374;19.446;2023-12-28T09:33:45;4.35;;;1.73;;
18853;SDS011;9556;49.374;19.446;2023-12-28T09:36:12;4.10;;;2.10;;
18853;SDS011;9556;49.374;19.446;2023-12-28T09:38:40;2.50;;;1.63;;
18853;SDS011;9556;49.374;19.446;2023-12-28T09:41:11;4.57;;;1.90;;
18853;SDS011;9556;49.374;19.446;2023-12-28T09:43:52;17.85;;;2.80;;
18853;SDS011;9556;49.374;19.446;2023-12-28T09:46:20;13.05;;;2.30;;
18853;SDS011;9556;49.374;19.446;2023-12-28T09:48:49;13.40;;;2.13;;
18853;SDS011;9556;49.374;19.446;2023-12-28T09:51:19;6.88;;;2.13;;
18853;SDS011;9556;49.374;19.446;2023-12-28T09:53:46;8.13;;;2.10;;
18853;SDS011;9556;49.374;19.446;2023-12-28T09:56:13;12.55;;;2.47;;
18853;SDS011;9556;49.374;19.446;2023-12-28T09:58:40;10.52;;;2.20;;
18853;SDS011;9556;49.374;19.446;2023-12-28T10:01:09;19.05;;;2.38;;
18853;SDS011;9556;49.374;19.446;2023-12-28T10:03:36;10.35;;;2.15;;
18853;SDS011;9556;49.374;19.446;2023-12-28T10:06:05;12.45;;;2.15;;
18853;SDS011;9556;49.374;19.446;2023-12-28T10:08:32;5.00;;;2.17;;
18853;SDS011;9556;49.374;19.446;2023-12-28T10:11:01;13.40;;;2.30;;
18853;SDS011;9556;49.374;19.446;2023-12-28T10:13:28;12.02;;;2.05;;
18853;SDS011;9556;49.374;19.446;2023-12-28T10:15:56;7.78;;;1.98;;
18853;SDS011;9556;49.374;19.446;2023-12-28T10:18:23;3.97;;;1.70;;
18853;SDS011;9556;49.374;19.446;2023-12-28T10:20:51;7.90;;;2.20;;
18853;SDS011;9556;49.374;19.446;2023-12-28T10:23:20;8.48;;;2.30;;
18853;SDS011;9556;49.374;19.446;2023-12-28T10:25:47;9.55;;;2.35;;
18853;SDS011;9556;49.374;19.446;2023-12-28T10:28:15;8.90;;;2.65;;
18853;SDS011;9556;49.374;19.446;2023-12-28T10:30:44;13.25;;;3.15;;
18853;SDS011;9556;49.374;19.446;2023-12-28T10:33:12;8.75;;;2.80;;
18853;SDS011;9556;49.374;19.446;2023-12-28T10:35:40;10.77;;;2.97;;
18853;SDS011;9556;49.374;19.446;2023-12-28T10:38:08;7.05;;;2.67;;
18853;SDS011;9556;49.374;19.446;2023-12-28T10:40:38;27.27;;;3.00;;
18853;SDS011;9556;49.374;19.446;2023-12-28T10:43:06;9.77;;;3.38;;
18853;SDS011;9556;49.374;19.446;2023-12-28T10:45:35;8.35;;;3.50;;
18853;SDS011;9556;49.374;19.446;2023-12-28T10:48:04;8.70;;;3.45;;
18853;SDS011;9556;49.374;19.446;2023-12-28T10:50:37;9.02;;;3.53;;
18853;SDS011;9556;49.374;19.446;2023-12-28T10:53:08;10.23;;;3.60;;
18853;SDS011;9556;49.374;19.446;2023-12-28T10:55:43;9.20;;;3.35;;
18853;SDS011;9556;49.374;19.446;2023-12-28T10:58:16;14.73;;;3.60;;
18853;SDS011;9556;49.374;19.446;2023-12-28T11:00:46;11.95;;;3.60;;
18853;SDS011;9556;49.374;19.446;2023-12-28T11:03:15;15.02;;;3.53;;
18853;SDS011;9556;49.374;19.446;2023-12-28T11:05:45;9.05;;;3.47;;
18853;SDS011;9556;49.374;19.446;2023-12-28T11:08:13;13.23;;;3.40;;
18853;SDS011;9556;49.374;19.446;2023-12-28T11:10:43;10.82;;;3.40;;
18853;SDS011;9556;49.374;19.446;2023-12-28T11:13:10;8.02;;;3.50;;
18853;SDS011;9556;49.374;19.446;2023-12-28T11:15:40;15.48;;;3.40;;
18853;SDS011;9556;49.374;19.446;2023-12-28T11:18:08;8.80;;;3.13;;
18853;SDS011;9556;49.374;19.446;2023-12-28T11:20:35;10.40;;;3.45;;
18853;SDS011;9556;49.374;19.446;2023-12-28T11:23:03;9.30;;;3.70;;
18853;SDS011;9556;49.374;19.446;2023-12-28T11:25:30;9.68;;;3.70;;
18853;SDS011;9556;49.374;19.446;2023-12-28T11:28:00;7.47;;;3.53;;
18853;SDS011;9556;49.374;19.446;2023-12-28T11:30:27;8.05;;;2.83;;
18853;SDS011;9556;49.374;19.446;2023-12-28T11:32:55;11.85;;;3.47;;
18853;SDS011;9556;49.374;19.446;2023-12-28T11:35:24;9.93;;;3.17;;
18853;SDS011;9556;49.374;19.446;2023-12-28T11:37:58;8.23;;;2.97;;
18853;SDS011;9556;49.374;19.446;2023-12-28T11:40:31;11.80;;;3.75;;
18853;SDS011;9556;49.374;19.446;2023-12-28T11:43:14;7.22;;;3.08;;
18853;SDS011;9556;49.374;19.446;2023-12-28T11:45:46;8.05;;;3.30;;
18853;SDS011;9556;49.374;19.446;2023-12-28T11:48:21;6.75;;;2.92;;
18853;SDS011;9556;49.374;19.446;2023-12-28T11:50:49;9.95;;;2.95;;
18853;SDS011;9556;49.374;19.446;2023-12-28T11:53:16;9.27;;;3.08;;
18853;SDS011;9556;49.374;19.446;2023-12-28T11:55:44;8.13;;;3.22;;
18853;SDS011;9556;49.374;19.446;2023-12-28T11:58:12;12.68;;;2.95;;
18853;SDS011;9556;49.374;19.446;2023-12-28T12:00:39;5.63;;;2.65;;
18853;SDS011;9556;49.374;19.446;2023-12-28T12:03:09;5.82;;;2.70;;
18853;SDS011;9556;49.374;19.446;2023-12-28T12:05:36;12.88;;;3.08;;
18853;SDS011;9556;49.374;19.446;2023-12-28T12:08:08;5.53;;;2.75;;
18853;SDS011;9556;49.374;19.446;2023-12-28T12:10:38;5.35;;;2.83;;
18853;SDS011;9556;49.374;19.446;2023-12-28T12:13:06;4.50;;;2.47;;
18853;SDS011;9556;49.374;19.446;2023-12-28T12:15:34;7.80;;;2.80;;
18853;SDS011;9556;49.374;19.446;2023-12-28T12:18:02;10.32;;;2.90;;
18853;SDS011;9556;49.374;19.446;2023-12-28T12:20:29;8.38;;;3.17;;
18853;SDS011;9556;49.374;19.446;2023-12-28T12:22:57;7.95;;;2.72;;
18853;SDS011;9556;49.374;19.446;2023-12-28T12:25:25;7.88;;;2.90;;
18853;SDS011;9556;49.374;19.446;2023-12-28T12:27:52;9.35;;;2.72;;
18853;SDS011;9556;49.374;19.446;2023-12-28T12:30:20;4.43;;;2.60;;
18853;SDS011;9556;49.374;19.446;2023-12-28T12:32:49;7.78;;;2.53;;
18853;SDS011;9556;49.374;19.446;2023-12-28T12:35:16;8.27;;;2.63;;
18853;SDS011;9556;49.374;19.446;2023-12-28T12:37:46;6.80;;;2.58;;
18853;SDS011;9556;49.374;19.446;2023-12-28T12:40:15;10.63;;;2.50;;
18853;SDS011;9556;49.374;19.446;2023-12-28T12:42:51;8.82;;;2.92;;
18853;SDS011;9556;49.374;19.446;2023-12-28T12:45:18;5.57;;;2.70;;
18853;SDS011;9556;49.374;19.446;2023-12-28T12:47:46;6.22;;;2.40;;
18853;SDS011;9556;49.374;19.446;2023-12-28T12:50:16;4.90;;;2.50;;
18853;SDS011;9556;49.374;19.446;2023-12-28T12:52:43;6.03;;;2.80;;
18853;SDS011;9556;49.374;19.446;2023-12-28T12:55:10;37.28;;;12.60;;
18853;SDS011;9556;49.374;19.446;2023-12-28T12:57:38;66.53;;;20.75;;
18853;SDS011;9556;49.374;19.446;2023-12-28T13:00:05;90.30;;;27.27;;
18853;SDS011;9556;49.374;19.446;2023-12-28T13:02:34;75.43;;;22.23;;
18853;SDS011;9556;49.374;19.446;2023-12-28T13:05:01;65.43;;;19.55;;
18853;SDS011;9556;49.374;19.446;2023-12-28T13:07:31;59.72;;;16.83;;
18853;SDS011;9556;49.374;19.446;2023-12-28T13:09:58;61.58;;;17.13;;
18853;SDS011;9556;49.374;19.446;2023-12-28T13:12:26;46.03;;;14.93;;
18853;SDS011;9556;49.374;19.446;2023-12-28T13:14:53;43.55;;;15.18;;
18853;SDS011;9556;49.374;19.446;2023-12-28T13:17:20;40.35;;;13.88;;
18853;SDS011;9556;49.374;19.446;2023-12-28T13:19:47;47.60;;;14.43;;
18853;SDS011;9556;49.374;19.446;2023-12-28T13:22:14;47.47;;;14.18;;
18853;SDS011;9556;49.374;19.446;2023-12-28T13:24:43;39.08;;;12.73;;
18853;SDS011;9556;49.374;19.446;2023-12-28T13:27:10;42.13;;;12.40;;
18853;SDS011;9556;49.374;19.446;2023-12-28T13:29:39;40.58;;;12.30;;
18853;SDS011;9556;49.374;19.446;2023-12-28T13:32:06;32.17;;;11.55;;
18853;SDS011;9556;49.374;19.446;2023-12-28T13:34:33;30.75;;;11.05;;
18853;SDS011;9556;49.374;19.446;2023-12-28T13:37:01;29.70;;;10.77;;
18853;SDS011;9556;49.374;19.446;2023-12-28T13:39:28;28.95;;;10.43;;
18853;SDS011;9556;49.374;19.446;2023-12-28T13:41:56;31.83;;;10.48;;
18853;SDS011;9556;49.374;19.446;2023-12-28T13:44:24;28.65;;;10.35;;
18853;SDS011;9556;49.374;19.446;2023-12-28T13:46:52;34.28;;;10.20;;
18853;SDS011;9556;49.374;19.446;2023-12-28T13:49:19;28.40;;;9.52;;
18853;SDS011;9556;49.374;19.446;2023-12-28T13:51:46;24.23;;;9.10;;
18853;SDS011;9556;49.374;19.446;2023-12-28T13:54:14;32.10;;;8.93;;
18853;SDS011;9556;49.374;19.446;2023-12-28T13:56:41;26.02;;;8.73;;
18853;SDS011;9556;49.374;19.446;2023-12-28T13:59:11;24.27;;;8.18;;
18853;SDS011;9556;49.374;19.446;2023-12-28T14:01:38;24.75;;;8.43;;
18853;SDS011;9556;49.374;19.446;2023-12-28T14:04:06;31.90;;;9.07;;
18853;SDS011;9556;49.374;19.446;2023-12-28T14:06:33;29.85;;;7.95;;
18853;SDS011;9556;49.374;19.446;2023-12-28T14:09:00;24.90;;;7.80;;
18853;SDS011;9556;49.374;19.446;2023-12-28T14:11:27;20.10;;;7.32;;
18853;SDS011;9556;49.374;19.446;2023-12-28T14:13:55;17.92;;;6.88;;
18853;SDS011;9556;49.374;19.446;2023-12-28T14:16:23;21.33;;;7.15;;
18853;SDS011;9556;49.374;19.446;2023-12-28T14:18:50;17.75;;;7.30;;
18853;SDS011;9556;49.374;19.446;2023-12-28T14:21:18;19.45;;;7.50;;
18853;SDS011;9556;49.374;19.446;2023-12-28T14:23:45;17.88;;;7.30;;
18853;SDS011;9556;49.374;19.446;2023-12-28T14:26:13;15.40;;;6.28;;
18853;SDS011;9556;49.374;19.446;2023-12-28T14:28:41;18.58;;;6.53;;
18853;SDS011;9556;49.374;19.446;2023-12-28T14:31:08;17.10;;;5.40;;
18853;SDS011;9556;49.374;19.446;2023-12-28T14:33:37;13.48;;;5.90;;
18853;SDS011;9556;49.374;19.446;2023-12-28T14:36:07;14.38;;;6.18;;
18853;SDS011;9556;49.374;19.446;2023-12-28T14:38:38;20.75;;;6.43;;
18853;SDS011;9556;49.374;19.446;2023-12-28T14:41:05;12.20;;;5.57;;
18853;SDS011;9556;49.374;19.446;2023-12-28T14:43:34;13.73;;;5.72;;
18853;SDS011;9556;49.374;19.446;2023-12-28T14:46:01;12.68;;;5.75;;
18853;SDS011;9556;49.374;19.446;2023-12-28T14:48:29;13.02;;;5.53;;
18853;SDS011;9556;49.374;19.446;2023-12-28T14:50:59;12.88;;;5.30;;